createdAt,value
2022-10-17T00:00:48.896Z,13.40
2022-10-17T00:03:15.980Z,13.40
2022-10-17T00:05:45.691Z,13.40
2022-10-17T00:08:14.675Z,13.50
2022-10-17T00:10:41.867Z,13.40
2022-10-17T00:13:12.079Z,13.40
2022-10-17T00:15:38.995Z,13.50
2022-10-17T00:18:05.856Z,13.40
2022-10-17T00:20:35.727Z,13.50
2022-10-17T00:23:02.530Z,13.50
2022-10-17T00:25:29.367Z,13.50
2022-10-17T00:27:56.309Z,13.50
2022-10-17T00:30:23.251Z,13.50
2022-10-17T00:32:50.151Z,13.60
2022-10-17T00:35:17.114Z,13.50
2022-10-17T00:37:43.851Z,13.50
2022-10-17T00:40:11.227Z,13.50
2022-10-17T00:42:38.172Z,13.50
2022-10-17T00:45:16.295Z,13.50
2022-10-17T00:47:46.503Z,13.50
2022-10-17T00:50:15.011Z,13.50
2022-10-17T00:52:42.407Z,13.60
2022-10-17T00:55:15.078Z,13.60
2022-10-17T00:57:42.503Z,13.60
2022-10-17T01:00:10.934Z,13.60
2022-10-17T01:02:38.327Z,13.60
2022-10-17T01:05:06.547Z,13.70
2022-10-17T01:07:37.126Z,13.60
2022-10-17T01:10:05.735Z,13.50
2022-10-17T01:13:04.844Z,13.40
2022-10-17T01:15:46.681Z,13.40
2022-10-17T01:18:24.723Z,13.30
2022-10-17T01:20:51.455Z,13.30
2022-10-17T01:23:36.322Z,13.30
2022-10-17T01:26:20.817Z,13.20
2022-10-17T01:28:50.368Z,13.20
2022-10-17T01:31:23.532Z,13.10
2022-10-17T01:33:59.156Z,13.10
2022-10-17T01:36:53.269Z,13.10
2022-10-17T01:39:43.893Z,13.10
2022-10-17T01:42:34.116Z,13.10
2022-10-17T01:45:09.337Z,13.00
2022-10-17T01:47:36.456Z,13.00
2022-10-17T01:50:18.405Z,13.00
2022-10-17T01:52:59.077Z,13.00
2022-10-17T01:55:33.426Z,13.10
2022-10-17T01:58:15.007Z,13.10
2022-10-17T02:00:43.560Z,13.00
2022-10-17T02:03:15.646Z,13.00
2022-10-17T02:05:43.990Z,13.10
2022-10-17T02:08:11.798Z,13.00
2022-10-17T02:10:57.735Z,13.00
2022-10-17T02:13:46.086Z,13.00
2022-10-17T02:16:48.222Z,13.00
2022-10-17T02:19:39.446Z,13.10
2022-10-17T02:22:09.392Z,13.10
2022-10-17T02:24:52.404Z,13.10
2022-10-17T02:27:50.443Z,13.00
2022-10-17T02:30:53.037Z,13.00
2022-10-17T02:33:28.898Z,13.00
2022-10-17T02:36:00.487Z,13.00
2022-10-17T02:38:32.388Z,13.00
2022-10-17T02:41:01.756Z,13.50
2022-10-17T02:43:31.272Z,13.00
2022-10-17T02:45:58.149Z,13.10
2022-10-17T02:48:24.967Z,13.10
2022-10-17T02:51:25.276Z,13.10
2022-10-17T02:54:13.399Z,13.20
2022-10-17T02:56:46.246Z,13.20
2022-10-17T02:59:16.947Z,13.20
2022-10-17T03:01:44.439Z,13.20
2022-10-17T03:04:14.191Z,13.20
2022-10-17T03:06:41.404Z,13.20
2022-10-17T03:09:08.390Z,13.20
2022-10-17T03:11:35.450Z,13.20
2022-10-17T03:14:02.329Z,13.20
2022-10-17T03:16:29.307Z,13.20
2022-10-17T03:18:56.481Z,13.20
2022-10-17T03:21:23.381Z,13.20
2022-10-17T03:23:50.268Z,13.20
2022-10-17T03:26:17.073Z,13.10
2022-10-17T03:28:44.019Z,13.20
2022-10-17T03:31:14.972Z,13.10
2022-10-17T03:33:41.813Z,13.10
2022-10-17T03:36:10.770Z,13.20
2022-10-17T03:38:37.653Z,13.20
2022-10-17T03:41:05.614Z,13.20
2022-10-17T03:43:32.489Z,13.20
2022-10-17T03:46:00.559Z,13.20
2022-10-17T03:48:29.390Z,13.30
2022-10-17T03:51:01.662Z,13.20
2022-10-17T03:53:28.875Z,13.30
2022-10-17T03:55:56.018Z,13.30
2022-10-17T03:58:22.944Z,13.30
2022-10-17T04:00:49.735Z,13.30
2022-10-17T04:03:17.297Z,13.30
2022-10-17T04:05:44.335Z,13.40
2022-10-17T04:08:11.131Z,13.40
2022-10-17T04:10:38.022Z,13.30
2022-10-17T04:13:06.419Z,13.30
2022-10-17T04:15:33.317Z,13.30
2022-10-17T04:18:00.194Z,13.30
2022-10-17T04:20:27.158Z,13.40
2022-10-17T04:22:56.761Z,13.30
2022-10-17T04:25:23.558Z,13.30
2022-10-17T04:27:50.366Z,13.20
2022-10-17T04:30:17.764Z,13.20
2022-10-17T04:32:44.595Z,13.20
2022-10-17T04:35:11.527Z,13.10
2022-10-17T04:37:38.459Z,13.10
2022-10-17T04:40:05.829Z,13.20
2022-10-17T04:42:32.879Z,13.00
2022-10-17T04:44:59.756Z,13.10
2022-10-17T04:47:26.837Z,13.00
2022-10-17T04:49:53.768Z,13.10
2022-10-17T04:52:20.698Z,13.10
2022-10-17T04:54:47.464Z,13.10
2022-10-17T04:57:14.593Z,13.00
2022-10-17T04:59:41.361Z,13.10
2022-10-17T05:02:08.335Z,13.10
2022-10-17T05:04:35.102Z,13.10
2022-10-17T05:07:02.177Z,13.20
2022-10-17T05:09:29.976Z,13.30
2022-10-17T05:11:56.854Z,13.30
2022-10-17T05:14:23.712Z,13.30
2022-10-17T05:16:50.527Z,13.40
2022-10-17T05:19:18.434Z,13.40
2022-10-17T05:21:45.245Z,13.50
2022-10-17T05:24:14.289Z,13.50
2022-10-17T05:26:41.228Z,13.60
2022-10-17T05:29:08.161Z,13.60
2022-10-17T05:31:35.073Z,13.60
2022-10-17T05:34:07.072Z,13.60
2022-10-17T05:36:35.907Z,13.60
2022-10-17T05:39:02.795Z,13.50
2022-10-17T05:41:29.651Z,13.60
2022-10-17T05:43:57.817Z,13.60
2022-10-17T05:46:26.366Z,13.70
2022-10-17T05:48:55.589Z,13.70
2022-10-17T05:51:22.485Z,13.70
2022-10-17T05:53:49.326Z,13.70
2022-10-17T05:56:16.226Z,13.70
2022-10-17T05:58:50.312Z,13.80
2022-10-17T06:01:18.432Z,13.80
2022-10-17T06:03:45.304Z,13.80
2022-10-17T06:06:13.852Z,13.90
2022-10-17T06:08:40.901Z,13.80
2022-10-17T06:11:10.123Z,13.90
2022-10-17T06:13:38.299Z,14.00
2022-10-17T06:16:05.826Z,14.00
2022-10-17T06:18:32.742Z,14.00
2022-10-17T06:21:08.592Z,14.00
2022-10-17T06:23:35.536Z,14.00
2022-10-17T06:26:03.497Z,14.10
2022-10-17T06:28:31.249Z,14.10
2022-10-17T06:30:58.243Z,14.10
2022-10-17T06:33:25.444Z,14.20
2022-10-17T06:35:56.216Z,14.20
2022-10-17T06:38:23.760Z,14.20
2022-10-17T06:40:50.700Z,14.20
2022-10-17T06:43:17.620Z,14.30
2022-10-17T06:45:47.420Z,14.30
2022-10-17T06:48:14.840Z,14.30
2022-10-17T06:50:41.714Z,14.30
2022-10-17T06:53:08.524Z,14.40
2022-10-17T06:55:35.362Z,14.40
2022-10-17T06:58:02.202Z,14.50
2022-10-17T07:00:29.234Z,14.50
2022-10-17T07:02:56.136Z,14.60
2022-10-17T07:05:23.035Z,14.60
2022-10-17T07:07:51.740Z,14.70
2022-10-17T07:10:19.074Z,14.80
2022-10-17T07:12:46.074Z,14.80
2022-10-17T07:15:13.148Z,14.80
2022-10-17T07:17:40.171Z,14.90
2022-10-17T07:20:07.650Z,15.00
2022-10-17T07:22:34.533Z,15.10
2022-10-17T07:25:01.389Z,15.10
2022-10-17T07:27:28.715Z,15.20
2022-10-17T07:29:55.808Z,15.20
2022-10-17T07:32:22.719Z,15.20
2022-10-17T07:34:49.724Z,15.30
2022-10-17T07:37:16.710Z,15.40
2022-10-17T07:39:43.540Z,15.50
2022-10-17T07:42:10.529Z,15.60
2022-10-17T07:44:37.449Z,15.60
2022-10-17T07:47:04.373Z,15.70
2022-10-17T07:49:31.657Z,15.80
2022-10-17T07:51:58.535Z,15.90
2022-10-17T07:54:25.608Z,16.00
2022-10-17T07:56:52.587Z,16.00
2022-10-17T07:59:19.780Z,16.00
2022-10-17T08:01:46.704Z,16.00
2022-10-17T08:04:13.551Z,16.10
2022-10-17T08:06:40.319Z,16.10
2022-10-17T08:09:07.182Z,16.10
2022-10-17T08:11:35.928Z,16.20
2022-10-17T08:14:02.933Z,16.20
2022-10-17T08:16:29.843Z,16.30
2022-10-17T08:18:56.759Z,16.40
2022-10-17T08:21:23.628Z,16.50
2022-10-17T08:23:50.555Z,16.60
2022-10-17T08:26:20.266Z,16.70
2022-10-17T08:28:48.092Z,16.90
2022-10-17T08:31:20.252Z,17.10
2022-10-17T08:33:48.301Z,17.20
2022-10-17T08:36:17.688Z,17.40
2022-10-17T08:38:46.146Z,17.50
2022-10-17T08:41:41.484Z,17.60
2022-10-17T08:44:22.031Z,17.70
2022-10-17T08:46:53.358Z,17.80
2022-10-17T08:49:29.839Z,17.80
2022-10-17T08:52:04.416Z,17.90
2022-10-17T08:54:50.323Z,17.90
2022-10-17T08:57:17.944Z,17.90
2022-10-17T08:59:50.460Z,17.90
2022-10-17T09:02:48.884Z,17.90
2022-10-17T09:05:39.291Z,17.90
2022-10-17T09:08:29.433Z,17.90
2022-10-17T09:11:07.259Z,17.90
2022-10-17T09:13:46.306Z,17.90
2022-10-17T09:16:31.893Z,17.90
2022-10-17T09:19:11.782Z,17.90
2022-10-17T09:21:47.206Z,17.90
2022-10-17T09:24:27.884Z,17.90
2022-10-17T09:26:55.794Z,18.00
2022-10-17T09:29:27.695Z,18.10
2022-10-17T09:32:03.473Z,18.10
2022-10-17T09:34:32.557Z,18.10
2022-10-17T09:37:00.986Z,18.20
2022-10-17T09:39:32.069Z,18.20
2022-10-17T09:42:03.182Z,18.20
2022-10-17T09:44:33.304Z,18.20
2022-10-17T09:47:00.185Z,18.20
2022-10-17T09:49:33.185Z,18.30
2022-10-17T09:52:03.613Z,18.30
2022-10-17T09:54:42.198Z,18.20
2022-10-17T09:57:11.388Z,18.20
2022-10-17T09:59:41.668Z,18.10
2022-10-17T10:02:20.841Z,18.00
2022-10-17T10:05:17.949Z,17.90
2022-10-17T10:08:01.604Z,17.60
2022-10-17T10:10:30.428Z,17.40
2022-10-17T10:13:05.297Z,17.30
2022-10-17T10:15:33.938Z,17.20
2022-10-17T10:18:01.094Z,17.10
2022-10-17T10:20:37.939Z,17.00
2022-10-17T10:23:19.515Z,16.70
2022-10-17T10:25:58.232Z,16.60
2022-10-17T10:28:32.220Z,16.50
2022-10-17T10:31:08.479Z,16.40
2022-10-17T10:33:41.737Z,16.40
2022-10-17T10:36:09.166Z,16.30
2022-10-17T10:38:39.462Z,16.30
2022-10-17T10:41:08.945Z,16.20
2022-10-17T10:43:45.334Z,16.20
2022-10-17T10:46:27.319Z,16.20
2022-10-17T10:48:58.667Z,16.20
2022-10-17T10:51:46.037Z,16.20
2022-10-17T10:54:41.596Z,16.20
2022-10-17T10:57:19.909Z,16.10
2022-10-17T11:00:17.303Z,16.10
2022-10-17T11:02:57.900Z,16.10
2022-10-17T11:05:40.243Z,16.10
2022-10-17T11:08:23.871Z,16.10
2022-10-17T11:11:03.694Z,16.10
2022-10-17T11:13:46.454Z,16.10
2022-10-17T11:16:29.347Z,16.00
2022-10-17T11:19:08.270Z,16.10
2022-10-17T11:21:59.569Z,16.10
2022-10-17T11:24:37.188Z,16.20
2022-10-17T11:27:06.434Z,16.30
2022-10-17T11:29:36.300Z,16.30
2022-10-17T11:32:35.059Z,16.40
2022-10-17T11:35:08.165Z,16.30
2022-10-17T11:37:41.041Z,16.30
2022-10-17T11:40:37.770Z,16.40
2022-10-17T11:43:27.066Z,16.40
2022-10-17T11:45:59.690Z,16.40
2022-10-17T11:48:41.026Z,16.40
2022-10-17T11:54:10.196Z,16.60
2022-10-17T11:56:41.859Z,16.60
2022-10-17T11:59:41.377Z,16.60
2022-10-17T12:02:32.783Z,16.50
2022-10-17T12:05:22.928Z,16.40
2022-10-17T12:08:17.669Z,16.30
2022-10-17T12:10:47.302Z,16.30
2022-10-17T12:13:41.920Z,16.30
2022-10-17T12:16:21.042Z,16.30
2022-10-17T12:19:09.350Z,16.30
2022-10-17T12:21:57.186Z,16.20
2022-10-17T12:25:00.790Z,16.20
2022-10-17T12:27:43.451Z,16.10
2022-10-17T12:30:16.635Z,16.20
2022-10-17T12:33:07.444Z,16.20
2022-10-17T12:35:36.637Z,16.10
2022-10-17T12:38:17.052Z,16.20
2022-10-17T12:40:48.447Z,16.20
2022-10-17T12:43:15.677Z,16.20
2022-10-17T12:45:59.920Z,16.30
2022-10-17T12:48:41.760Z,16.30
2022-10-17T12:51:35.437Z,16.40
2022-10-17T12:54:16.375Z,16.40
2022-10-17T12:56:45.390Z,16.50
2022-10-17T12:59:30.439Z,16.60
2022-10-17T13:02:01.807Z,16.60
2022-10-17T13:04:36.302Z,16.70
2022-10-17T13:07:04.010Z,16.70
2022-10-17T13:09:35.355Z,16.70
2022-10-17T13:12:06.998Z,16.70
2022-10-17T13:14:34.880Z,16.70
2022-10-17T13:17:07.529Z,16.70
2022-10-17T13:19:46.164Z,16.60
2022-10-17T13:22:33.885Z,16.70
2022-10-17T13:25:16.807Z,16.70
2022-10-17T13:27:43.840Z,16.70
2022-10-17T13:30:32.271Z,16.80
2022-10-17T13:33:00.640Z,16.80
2022-10-17T13:35:55.728Z,16.80
2022-10-17T13:38:29.641Z,16.80
2022-10-17T13:41:01.955Z,16.80
2022-10-17T13:43:33.251Z,16.80
2022-10-17T13:46:25.334Z,16.90
2022-10-17T13:48:53.360Z,16.90
2022-10-17T13:51:20.488Z,16.80
2022-10-17T13:53:47.435Z,16.80
2022-10-17T13:56:28.428Z,16.80
2022-10-17T13:59:17.600Z,16.70
2022-10-17T14:01:44.860Z,16.70
2022-10-17T14:04:19.459Z,16.70
2022-10-17T14:06:51.258Z,16.70
2022-10-17T14:09:24.882Z,16.70
2022-10-17T14:12:19.217Z,16.70
2022-10-17T14:15:09.880Z,16.70
2022-10-17T14:17:38.633Z,16.70
2022-10-17T14:20:40.810Z,16.70
2022-10-17T14:23:21.480Z,16.70
2022-10-17T14:25:43.777Z,16.70
2022-10-17T14:28:15.834Z,16.60
2022-10-17T14:30:57.517Z,16.60
2022-10-17T14:33:29.292Z,16.60
2022-10-17T14:35:58.887Z,16.60
2022-10-17T14:38:27.848Z,16.60
2022-10-17T14:41:09.800Z,16.50
2022-10-17T14:43:42.634Z,16.40
2022-10-17T14:46:15.659Z,16.10
2022-10-17T14:48:43.477Z,15.90
2022-10-17T14:51:18.709Z,15.70
2022-10-17T14:54:05.200Z,15.60
2022-10-17T14:56:43.240Z,15.40
2022-10-17T14:59:12.636Z,15.30
2022-10-17T15:01:42.561Z,15.20
2022-10-17T15:04:10.899Z,15.20
2022-10-17T15:06:37.739Z,15.10
2022-10-17T15:09:04.673Z,15.00
2022-10-17T15:11:31.803Z,15.00
2022-10-17T15:13:59.700Z,14.90
2022-10-17T15:16:30.963Z,14.90
2022-10-17T15:18:57.882Z,14.80
2022-10-17T15:21:39.306Z,14.70
2022-10-17T15:24:07.531Z,14.70
2022-10-17T15:26:34.923Z,14.70
2022-10-17T15:29:02.289Z,14.70
2022-10-17T15:31:31.310Z,14.70
2022-10-17T15:33:58.130Z,14.70
2022-10-17T15:36:40.009Z,14.70
2022-10-17T15:39:07.212Z,14.70
2022-10-17T15:41:34.224Z,14.70
2022-10-17T15:44:01.495Z,14.70
2022-10-17T15:46:32.659Z,14.80
2022-10-17T15:49:04.203Z,14.80
2022-10-17T15:51:31.086Z,14.80
2022-10-17T15:54:01.596Z,14.80
2022-10-17T15:56:38.026Z,14.90
2022-10-17T15:59:13.607Z,15.00
2022-10-17T16:01:41.500Z,15.00
2022-10-17T16:04:13.105Z,15.00
2022-10-17T16:06:39.933Z,15.00
2022-10-17T16:09:06.822Z,15.00
2022-10-17T16:11:35.430Z,15.10
2022-10-17T16:14:05.229Z,15.10
2022-10-17T16:16:33.540Z,15.10
2022-10-17T16:19:01.413Z,15.00
2022-10-17T16:21:32.742Z,15.00
2022-10-17T16:24:00.613Z,15.00
2022-10-17T16:26:28.512Z,15.00
2022-10-17T16:28:57.432Z,14.90
2022-10-17T16:31:29.257Z,14.90
2022-10-17T16:33:57.648Z,14.90
2022-10-17T16:36:24.884Z,14.90
2022-10-17T16:38:53.927Z,14.80
2022-10-17T16:41:33.389Z,14.80
2022-10-17T16:44:02.451Z,14.80
2022-10-17T16:46:31.152Z,14.70
2022-10-17T16:48:58.572Z,14.70
2022-10-17T16:51:25.775Z,14.70
2022-10-17T16:53:54.596Z,14.70
2022-10-17T16:56:23.909Z,14.60
2022-10-17T16:58:51.462Z,14.50
2022-10-17T17:01:20.752Z,14.50
2022-10-17T17:03:47.704Z,14.40
2022-10-17T17:06:19.126Z,14.40
2022-10-17T17:08:46.358Z,14.40
2022-10-17T17:11:17.064Z,14.30
2022-10-17T17:13:44.017Z,14.30
2022-10-17T17:16:14.221Z,14.30
2022-10-17T17:18:41.909Z,14.30
2022-10-17T17:21:10.379Z,14.30
2022-10-17T17:23:39.517Z,14.30
2022-10-17T17:26:11.772Z,14.30
2022-10-17T17:28:39.788Z,14.30
2022-10-17T17:31:12.151Z,14.40
2022-10-17T17:33:40.445Z,14.40
2022-10-17T17:36:08.277Z,14.40
2022-10-17T17:38:36.416Z,14.40
2022-10-17T17:41:04.630Z,14.30
2022-10-17T17:43:31.529Z,14.40
2022-10-17T17:46:01.762Z,14.30
2022-10-17T17:48:28.717Z,14.40
2022-10-17T17:50:55.563Z,14.40
2022-10-17T17:53:22.771Z,14.40
2022-10-17T17:56:01.415Z,14.40
2022-10-17T17:58:28.438Z,14.40
2022-10-17T18:00:55.330Z,14.40
2022-10-17T18:03:22.228Z,14.40
2022-10-17T18:05:49.022Z,14.40
2022-10-17T18:08:15.969Z,14.40
2022-10-17T18:10:48.349Z,14.40
2022-10-17T18:13:15.474Z,14.40
2022-10-17T18:15:43.673Z,14.40
2022-10-17T18:18:10.702Z,14.40
2022-10-17T18:20:42.172Z,14.40
2022-10-17T18:23:10.485Z,14.30
2022-10-17T18:25:37.576Z,14.30
2022-10-17T18:28:04.942Z,14.30
2022-10-17T18:30:34.446Z,14.30
2022-10-17T18:33:01.454Z,14.30
2022-10-17T18:35:28.469Z,14.30
2022-10-17T18:37:57.018Z,14.30
2022-10-17T18:40:23.834Z,14.30
2022-10-17T18:42:50.707Z,14.30
2022-10-17T18:45:17.583Z,14.40
2022-10-17T18:47:47.184Z,14.40
2022-10-17T18:50:14.997Z,14.40
2022-10-17T18:52:41.830Z,14.50
2022-10-17T18:55:09.197Z,14.50
2022-10-17T18:57:36.193Z,14.60
2022-10-17T19:00:04.268Z,14.50
2022-10-17T19:02:34.385Z,14.60
2022-10-17T19:05:04.289Z,14.60
2022-10-17T19:07:31.246Z,14.60
2022-10-17T19:09:58.287Z,14.60
2022-10-17T19:12:25.219Z,14.60
2022-10-17T19:14:53.129Z,14.60
2022-10-17T19:17:19.942Z,14.60
2022-10-17T19:19:50.227Z,14.60
2022-10-17T19:22:17.106Z,14.60
2022-10-17T19:24:44.001Z,14.70
2022-10-17T19:27:12.242Z,14.70
2022-10-17T19:29:43.590Z,14.70
2022-10-17T19:32:15.665Z,14.70
2022-10-17T19:34:45.016Z,14.70
2022-10-17T19:37:11.830Z,14.70
2022-10-17T19:39:38.805Z,14.70
2022-10-17T19:42:06.934Z,14.60
2022-10-17T19:44:34.906Z,14.70
2022-10-17T19:47:01.719Z,14.70
2022-10-17T19:49:28.643Z,14.70
2022-10-17T19:51:55.502Z,14.80
2022-10-17T19:54:22.379Z,14.80
2022-10-17T19:56:49.336Z,14.70
2022-10-17T19:59:17.375Z,14.70
2022-10-17T20:01:44.924Z,14.70
2022-10-17T20:04:12.638Z,14.70
2022-10-17T20:06:40.628Z,14.70
2022-10-17T20:09:09.892Z,14.70
2022-10-17T20:11:39.363Z,14.70
2022-10-17T20:14:06.784Z,14.60
2022-10-17T20:16:35.807Z,14.70
2022-10-17T20:19:10.015Z,14.60
2022-10-17T20:21:39.588Z,14.60
2022-10-17T20:24:08.632Z,14.60
2022-10-17T20:26:38.585Z,14.60
2022-10-17T20:29:18.516Z,14.60
2022-10-17T20:31:46.530Z,14.60
2022-10-17T20:34:15.841Z,14.60
2022-10-17T20:36:42.616Z,14.60
2022-10-17T20:39:11.837Z,14.60
2022-10-17T20:41:39.145Z,14.60
2022-10-17T20:44:07.020Z,14.60
2022-10-17T20:46:39.820Z,14.60
2022-10-17T20:49:11.157Z,14.50
2022-10-17T20:51:37.987Z,14.60
2022-10-17T20:54:04.969Z,14.60
2022-10-17T20:56:33.393Z,14.60
2022-10-17T20:59:03.603Z,14.50
2022-10-17T21:01:34.298Z,14.50
2022-10-17T21:04:16.223Z,14.50
2022-10-17T21:06:48.744Z,14.50
2022-10-17T21:09:15.588Z,14.50
2022-10-17T21:11:43.180Z,14.50
2022-10-17T21:14:11.209Z,14.50
2022-10-17T21:16:39.617Z,14.50
2022-10-17T21:19:06.659Z,14.40
2022-10-17T21:21:35.731Z,14.40
2022-10-17T21:24:05.518Z,14.40
2022-10-17T21:26:33.941Z,14.40
2022-10-17T21:29:05.457Z,14.40
2022-10-17T21:31:34.451Z,14.40
2022-10-17T21:34:06.051Z,14.40
2022-10-17T21:36:32.916Z,14.40
2022-10-17T21:38:59.757Z,14.40
2022-10-17T21:41:28.425Z,14.30
2022-10-17T21:44:00.341Z,14.40
2022-10-17T21:46:29.800Z,14.30
2022-10-17T21:48:58.242Z,14.40
2022-10-17T21:51:26.407Z,14.30
2022-10-17T21:53:54.985Z,14.40
2022-10-17T21:56:28.138Z,14.40
2022-10-17T21:58:55.419Z,14.30
2022-10-17T22:01:25.914Z,14.30
2022-10-17T22:03:55.252Z,14.40
2022-10-17T22:06:40.546Z,14.30
2022-10-17T22:09:34.189Z,14.30
2022-10-17T22:12:01.024Z,14.30
2022-10-17T22:14:28.458Z,14.30
2022-10-17T22:16:58.594Z,14.30
2022-10-17T22:19:27.244Z,14.30
2022-10-17T22:21:55.000Z,14.30
2022-10-17T22:24:23.165Z,14.20
2022-10-17T22:26:50.488Z,14.20
2022-10-17T22:29:17.652Z,14.20
2022-10-17T22:31:44.836Z,14.20
2022-10-17T22:34:14.176Z,14.20
2022-10-17T22:36:40.937Z,14.20
2022-10-17T22:39:08.001Z,14.10
2022-10-17T22:41:34.844Z,14.10
2022-10-17T22:44:01.836Z,14.10
2022-10-17T22:46:29.238Z,14.10
2022-10-17T22:48:56.084Z,14.10
2022-10-17T22:53:51.179Z,14.00
2022-10-17T22:56:20.916Z,14.00
2022-10-17T22:58:48.001Z,14.00
2022-10-17T23:01:21.719Z,14.00
2022-10-17T23:03:49.367Z,14.00
2022-10-17T23:06:16.517Z,14.00
2022-10-17T23:08:43.382Z,14.00
2022-10-17T23:11:10.687Z,14.00
2022-10-17T23:13:38.069Z,14.00
2022-10-17T23:16:05.341Z,14.00
2022-10-17T23:18:32.386Z,13.90
2022-10-17T23:20:59.280Z,13.90
2022-10-17T23:23:26.181Z,13.90
2022-10-17T23:25:53.030Z,13.90
2022-10-17T23:28:19.852Z,13.80
2022-10-17T23:30:46.776Z,13.80
2022-10-17T23:33:14.181Z,13.80
2022-10-17T23:35:41.826Z,13.80
2022-10-17T23:38:09.051Z,13.80
2022-10-17T23:40:35.933Z,13.80
2022-10-17T23:43:03.851Z,13.80
2022-10-17T23:45:34.641Z,13.80
2022-10-17T23:48:03.102Z,13.80
2022-10-17T23:50:29.946Z,13.80
2022-10-17T23:52:56.806Z,13.80
2022-10-17T23:55:23.608Z,13.80
2022-10-17T23:57:50.398Z,13.80
